sensor_id;sensor_type;location;lat;lon;timestamp;P1;durP1;ratioP1;P2;durP2;ratioP2
68432;SDS011;55412;51.350;17.056;2023-08-21T00:00:25;9.98;;;6.90;;
68432;SDS011;55412;51.350;17.056;2023-08-21T00:02:51;13.20;;;6.83;;
68432;SDS011;55412;51.350;17.056;2023-08-21T00:05:18;9.88;;;7.00;;
68432;SDS011;55412;51.350;17.056;2023-08-21T00:07:44;10.88;;;6.65;;
68432;SDS011;55412;51.350;17.056;2023-08-21T00:10:11;9.90;;;7.28;;
68432;SDS011;55412;51.350;17.056;2023-08-21T00:12:39;10.27;;;6.88;;
68432;SDS011;55412;51.350;17.056;2023-08-21T00:15:05;11.77;;;7.40;;
68432;SDS011;55412;51.350;17.056;2023-08-21T00:17:32;12.25;;;7.93;;
68432;SDS011;55412;51.350;17.056;2023-08-21T00:19:58;14.57;;;8.35;;
68432;SDS011;55412;51.350;17.056;2023-08-21T00:22:24;11.43;;;7.88;;
68432;SDS011;55412;51.350;17.056;2023-08-21T00:24:50;12.52;;;7.50;;
68432;SDS011;55412;51.350;17.056;2023-08-21T00:27:16;11.27;;;7.67;;
68432;SDS011;55412;51.350;17.056;2023-08-21T00:29:43;14.50;;;7.82;;
68432;SDS011;55412;51.350;17.056;2023-08-21T00:32:09;13.73;;;8.73;;
68432;SDS011;55412;51.350;17.056;2023-08-21T00:34:37;14.93;;;9.52;;
68432;SDS011;55412;51.350;17.056;2023-08-21T00:37:03;15.00;;;9.65;;
68432;SDS011;55412;51.350;17.056;2023-08-21T00:39:29;15.43;;;9.27;;
68432;SDS011;55412;51.350;17.056;2023-08-21T00:41:56;19.00;;;10.57;;
68432;SDS011;55412;51.350;17.056;2023-08-21T00:44:22;12.57;;;8.00;;
68432;SDS011;55412;51.350;17.056;2023-08-21T00:46:48;14.23;;;9.05;;
68432;SDS011;55412;51.350;17.056;2023-08-21T00:49:14;13.10;;;8.52;;
68432;SDS011;55412;51.350;17.056;2023-08-21T00:51:40;13.37;;;8.90;;
68432;SDS011;55412;51.350;17.056;2023-08-21T00:54:06;13.13;;;8.80;;
68432;SDS011;55412;51.350;17.056;2023-08-21T00:56:33;12.73;;;8.70;;
68432;SDS011;55412;51.350;17.056;2023-08-21T00:58:59;13.88;;;9.75;;
68432;SDS011;55412;51.350;17.056;2023-08-21T01:01:26;21.60;;;10.57;;
68432;SDS011;55412;51.350;17.056;2023-08-21T01:03:53;13.63;;;9.33;;
68432;SDS011;55412;51.350;17.056;2023-08-21T01:06:20;11.48;;;8.07;;
68432;SDS011;55412;51.350;17.056;2023-08-21T01:09:08;13.63;;;7.88;;
68432;SDS011;55412;51.350;17.056;2023-08-21T01:11:46;14.95;;;8.07;;
68432;SDS011;55412;51.350;17.056;2023-08-21T01:15:24;16.75;;;10.02;;
68432;SDS011;55412;51.350;17.056;2023-08-21T01:17:31;15.73;;;9.03;;
68432;SDS011;55412;51.350;17.056;2023-08-21T01:20:01;11.50;;;6.95;;
68432;SDS011;55412;51.350;17.056;2023-08-21T01:22:40;12.77;;;7.80;;
68432;SDS011;55412;51.350;17.056;2023-08-21T01:25:15;14.45;;;8.77;;
68432;SDS011;55412;51.350;17.056;2023-08-21T01:27:43;17.48;;;9.80;;
68432;SDS011;55412;51.350;17.056;2023-08-21T01:30:13;16.13;;;10.63;;
68432;SDS011;55412;51.350;17.056;2023-08-21T01:35:36;17.05;;;10.73;;
68432;SDS011;55412;51.350;17.056;2023-08-21T01:38:02;16.70;;;10.35;;
68432;SDS011;55412;51.350;17.056;2023-08-21T01:40:29;16.13;;;11.27;;
68432;SDS011;55412;51.350;17.056;2023-08-21T01:42:55;16.40;;;10.57;;
68432;SDS011;55412;51.350;17.056;2023-08-21T01:45:22;19.27;;;10.73;;
68432;SDS011;55412;51.350;17.056;2023-08-21T01:47:48;16.38;;;10.77;;
68432;SDS011;55412;51.350;17.056;2023-08-21T01:50:15;16.20;;;10.93;;
68432;SDS011;55412;51.350;17.056;2023-08-21T01:52:41;21.98;;;10.55;;
68432;SDS011;55412;51.350;17.056;2023-08-21T01:55:08;18.10;;;9.90;;
68432;SDS011;55412;51.350;17.056;2023-08-21T01:57:35;15.90;;;9.77;;
68432;SDS011;55412;51.350;17.056;2023-08-21T02:00:02;19.02;;;11.48;;
68432;SDS011;55412;51.350;17.056;2023-08-21T02:02:32;19.98;;;9.10;;
68432;SDS011;55412;51.350;17.056;2023-08-21T02:04:58;13.68;;;8.55;;
68432;SDS011;55412;51.350;17.056;2023-08-21T02:07:24;13.97;;;9.07;;
68432;SDS011;55412;51.350;17.056;2023-08-21T02:09:50;15.18;;;9.13;;
68432;SDS011;55412;51.350;17.056;2023-08-21T02:12:17;16.45;;;10.50;;
68432;SDS011;55412;51.350;17.056;2023-08-21T02:14:43;19.73;;;10.52;;
68432;SDS011;55412;51.350;17.056;2023-08-21T02:17:10;19.83;;;10.95;;
68432;SDS011;55412;51.350;17.056;2023-08-21T02:19:36;13.77;;;8.50;;
68432;SDS011;55412;51.350;17.056;2023-08-21T02:22:02;14.50;;;7.55;;
68432;SDS011;55412;51.350;17.056;2023-08-21T02:24:28;14.55;;;7.38;;
68432;SDS011;55412;51.350;17.056;2023-08-21T02:26:54;16.35;;;6.95;;
68432;SDS011;55412;51.350;17.056;2023-08-21T02:29:21;13.15;;;6.72;;
68432;SDS011;55412;51.350;17.056;2023-08-21T02:31:47;15.37;;;7.10;;
68432;SDS011;55412;51.350;17.056;2023-08-21T02:34:13;11.30;;;6.45;;
68432;SDS011;55412;51.350;17.056;2023-08-21T02:36:39;13.48;;;7.40;;
68432;SDS011;55412;51.350;17.056;2023-08-21T02:39:05;12.48;;;7.25;;
68432;SDS011;55412;51.350;17.056;2023-08-21T02:41:31;11.20;;;7.30;;
68432;SDS011;55412;51.350;17.056;2023-08-21T02:43:58;11.60;;;6.43;;
68432;SDS011;55412;51.350;17.056;2023-08-21T02:46:24;12.75;;;6.85;;
68432;SDS011;55412;51.350;17.056;2023-08-21T02:48:50;11.75;;;7.57;;
68432;SDS011;55412;51.350;17.056;2023-08-21T02:51:16;10.90;;;6.85;;
68432;SDS011;55412;51.350;17.056;2023-08-21T02:53:42;13.07;;;7.05;;
68432;SDS011;55412;51.350;17.056;2023-08-21T02:56:08;11.93;;;6.77;;
68432;SDS011;55412;51.350;17.056;2023-08-21T02:58:34;12.95;;;7.28;;
68432;SDS011;55412;51.350;17.056;2023-08-21T03:01:01;13.68;;;7.50;;
68432;SDS011;55412;51.350;17.056;2023-08-21T03:03:27;14.10;;;8.50;;
68432;SDS011;55412;51.350;17.056;2023-08-21T03:05:53;14.93;;;8.73;;
68432;SDS011;55412;51.350;17.056;2023-08-21T03:08:19;15.00;;;8.43;;
68432;SDS011;55412;51.350;17.056;2023-08-21T03:10:45;17.00;;;9.48;;
68432;SDS011;55412;51.350;17.056;2023-08-21T03:13:11;14.10;;;9.00;;
68432;SDS011;55412;51.350;17.056;2023-08-21T03:15:38;14.63;;;9.50;;
68432;SDS011;55412;51.350;17.056;2023-08-21T03:18:04;18.02;;;11.18;;
68432;SDS011;55412;51.350;17.056;2023-08-21T03:20:30;16.43;;;10.57;;
68432;SDS011;55412;51.350;17.056;2023-08-21T03:22:56;14.00;;;9.45;;
68432;SDS011;55412;51.350;17.056;2023-08-21T03:25:22;15.85;;;9.75;;
68432;SDS011;55412;51.350;17.056;2023-08-21T03:27:48;15.80;;;9.75;;
68432;SDS011;55412;51.350;17.056;2023-08-21T03:30:14;14.48;;;9.35;;
68432;SDS011;55412;51.350;17.056;2023-08-21T03:32:41;18.87;;;10.77;;
68432;SDS011;55412;51.350;17.056;2023-08-21T03:35:08;13.70;;;8.63;;
68432;SDS011;55412;51.350;17.056;2023-08-21T03:37:34;17.23;;;7.97;;
68432;SDS011;55412;51.350;17.056;2023-08-21T03:40:01;11.65;;;7.00;;
68432;SDS011;55412;51.350;17.056;2023-08-21T03:42:28;11.65;;;7.18;;
68432;SDS011;55412;51.350;17.056;2023-08-21T03:44:55;12.03;;;6.03;;
68432;SDS011;55412;51.350;17.056;2023-08-21T03:47:22;9.73;;;5.57;;
68432;SDS011;55412;51.350;17.056;2023-08-21T03:49:48;11.38;;;5.85;;
68432;SDS011;55412;51.350;17.056;2023-08-21T03:52:14;10.98;;;5.05;;
68432;SDS011;55412;51.350;17.056;2023-08-21T03:54:40;9.57;;;5.15;;
68432;SDS011;55412;51.350;17.056;2023-08-21T03:57:06;10.93;;;4.47;;
68432;SDS011;55412;51.350;17.056;2023-08-21T03:59:32;9.88;;;4.80;;
68432;SDS011;55412;51.350;17.056;2023-08-21T04:01:58;9.15;;;4.43;;
68432;SDS011;55412;51.350;17.056;2023-08-21T04:04:24;7.85;;;4.18;;
68432;SDS011;55412;51.350;17.056;2023-08-21T04:06:50;9.23;;;4.57;;
68432;SDS011;55412;51.350;17.056;2023-08-21T04:09:16;7.77;;;4.20;;
68432;SDS011;55412;51.350;17.056;2023-08-21T04:11:43;10.10;;;3.90;;
68432;SDS011;55412;51.350;17.056;2023-08-21T04:14:09;7.13;;;3.92;;
68432;SDS011;55412;51.350;17.056;2023-08-21T04:16:35;7.40;;;4.18;;
68432;SDS011;55412;51.350;17.056;2023-08-21T04:19:01;7.25;;;4.50;;
68432;SDS011;55412;51.350;17.056;2023-08-21T04:21:27;7.23;;;4.07;;
68432;SDS011;55412;51.350;17.056;2023-08-21T04:23:53;7.28;;;3.22;;
68432;SDS011;55412;51.350;17.056;2023-08-21T04:26:19;6.97;;;3.67;;
68432;SDS011;55412;51.350;17.056;2023-08-21T04:28:45;9.45;;;3.33;;
68432;SDS011;55412;51.350;17.056;2023-08-21T04:31:12;7.47;;;3.33;;
68432;SDS011;55412;51.350;17.056;2023-08-21T04:33:38;7.50;;;3.30;;
68432;SDS011;55412;51.350;17.056;2023-08-21T04:36:04;5.47;;;2.83;;
68432;SDS011;55412;51.350;17.056;2023-08-21T04:38:31;7.85;;;3.20;;
68432;SDS011;55412;51.350;17.056;2023-08-21T04:41:05;6.88;;;2.92;;
68432;SDS011;55412;51.350;17.056;2023-08-21T04:43:32;7.18;;;3.88;;
68432;SDS011;55412;51.350;17.056;2023-08-21T04:45:59;9.77;;;3.23;;
68432;SDS011;55412;51.350;17.056;2023-08-21T04:48:25;6.55;;;3.38;;
68432;SDS011;55412;51.350;17.056;2023-08-21T04:50:51;7.68;;;3.47;;
68432;SDS011;55412;51.350;17.056;2023-08-21T04:53:17;7.85;;;3.38;;
68432;SDS011;55412;51.350;17.056;2023-08-21T04:55:43;6.85;;;3.72;;
68432;SDS011;55412;51.350;17.056;2023-08-21T04:58:10;7.10;;;3.50;;
68432;SDS011;55412;51.350;17.056;2023-08-21T05:00:36;6.40;;;3.65;;
68432;SDS011;55412;51.350;17.056;2023-08-21T05:03:03;7.85;;;4.32;;
68432;SDS011;55412;51.350;17.056;2023-08-21T05:05:30;8.73;;;4.47;;
68432;SDS011;55412;51.350;17.056;2023-08-21T05:07:57;9.35;;;4.20;;
68432;SDS011;55412;51.350;17.056;2023-08-21T05:10:23;8.80;;;4.03;;
68432;SDS011;55412;51.350;17.056;2023-08-21T05:12:49;6.75;;;4.00;;
68432;SDS011;55412;51.350;17.056;2023-08-21T05:15:15;9.55;;;4.20;;
68432;SDS011;55412;51.350;17.056;2023-08-21T05:17:42;7.35;;;3.75;;
68432;SDS011;55412;51.350;17.056;2023-08-21T05:20:09;7.53;;;3.58;;
68432;SDS011;55412;51.350;17.056;2023-08-21T05:22:49;7.20;;;3.77;;
68432;SDS011;55412;51.350;17.056;2023-08-21T05:25:15;9.15;;;3.97;;
68432;SDS011;55412;51.350;17.056;2023-08-21T05:27:43;6.60;;;3.53;;
68432;SDS011;55412;51.350;17.056;2023-08-21T05:30:09;7.00;;;3.50;;
68432;SDS011;55412;51.350;17.056;2023-08-21T05:32:38;7.97;;;3.10;;
68432;SDS011;55412;51.350;17.056;2023-08-21T05:35:04;8.43;;;4.40;;
68432;SDS011;55412;51.350;17.056;2023-08-21T05:37:30;6.25;;;3.40;;
68432;SDS011;55412;51.350;17.056;2023-08-21T05:39:57;7.38;;;3.22;;
68432;SDS011;55412;51.350;17.056;2023-08-21T05:42:25;7.90;;;3.42;;
68432;SDS011;55412;51.350;17.056;2023-08-21T05:44:52;8.15;;;3.67;;
68432;SDS011;55412;51.350;17.056;2023-08-21T05:47:18;8.33;;;3.77;;
68432;SDS011;55412;51.350;17.056;2023-08-21T05:49:45;9.43;;;5.00;;
68432;SDS011;55412;51.350;17.056;2023-08-21T05:52:12;7.50;;;3.70;;
68432;SDS011;55412;51.350;17.056;2023-08-21T05:54:39;7.45;;;3.80;;
68432;SDS011;55412;51.350;17.056;2023-08-21T05:57:05;7.22;;;4.47;;
68432;SDS011;55412;51.350;17.056;2023-08-21T05:59:32;7.33;;;3.50;;
68432;SDS011;55412;51.350;17.056;2023-08-21T06:01:58;9.13;;;3.50;;
68432;SDS011;55412;51.350;17.056;2023-08-21T06:04:28;7.15;;;3.53;;
68432;SDS011;55412;51.350;17.056;2023-08-21T06:06:54;7.00;;;3.08;;
68432;SDS011;55412;51.350;17.056;2023-08-21T06:09:21;9.55;;;4.05;;
68432;SDS011;55412;51.350;17.056;2023-08-21T06:11:47;7.03;;;2.77;;
68432;SDS011;55412;51.350;17.056;2023-08-21T06:14:14;9.43;;;4.00;;
68432;SDS011;55412;51.350;17.056;2023-08-21T06:16:41;7.45;;;3.70;;
68432;SDS011;55412;51.350;17.056;2023-08-21T06:19:08;8.95;;;3.30;;
68432;SDS011;55412;51.350;17.056;2023-08-21T06:21:35;6.43;;;3.17;;
68432;SDS011;55412;51.350;17.056;2023-08-21T06:24:01;7.67;;;3.70;;
68432;SDS011;55412;51.350;17.056;2023-08-21T06:26:27;9.25;;;3.13;;
68432;SDS011;55412;51.350;17.056;2023-08-21T06:28:53;6.05;;;3.45;;
68432;SDS011;55412;51.350;17.056;2023-08-21T06:31:20;8.63;;;3.25;;
68432;SDS011;55412;51.350;17.056;2023-08-21T06:33:46;7.15;;;3.30;;
68432;SDS011;55412;51.350;17.056;2023-08-21T06:36:12;6.27;;;2.97;;
68432;SDS011;55412;51.350;17.056;2023-08-21T06:38:44;7.65;;;2.10;;
68432;SDS011;55412;51.350;17.056;2023-08-21T06:41:11;6.68;;;3.05;;
68432;SDS011;55412;51.350;17.056;2023-08-21T06:43:38;6.88;;;3.42;;
68432;SDS011;55412;51.350;17.056;2023-08-21T06:46:05;5.40;;;2.60;;
68432;SDS011;55412;51.350;17.056;2023-08-21T06:48:31;6.87;;;3.23;;
68432;SDS011;55412;51.350;17.056;2023-08-21T06:50:57;5.82;;;2.45;;
68432;SDS011;55412;51.350;17.056;2023-08-21T06:53:24;6.15;;;3.03;;
68432;SDS011;55412;51.350;17.056;2023-08-21T06:55:51;5.75;;;2.95;;
68432;SDS011;55412;51.350;17.056;2023-08-21T06:58:17;8.50;;;2.80;;
68432;SDS011;55412;51.350;17.056;2023-08-21T07:00:43;5.80;;;2.30;;
68432;SDS011;55412;51.350;17.056;2023-08-21T07:03:10;5.63;;;2.40;;
68432;SDS011;55412;51.350;17.056;2023-08-21T07:05:37;5.25;;;2.90;;
68432;SDS011;55412;51.350;17.056;2023-08-21T07:08:05;6.15;;;3.08;;
68432;SDS011;55412;51.350;17.056;2023-08-21T07:10:36;5.47;;;2.78;;
68432;SDS011;55412;51.350;17.056;2023-08-21T07:13:06;5.70;;;2.20;;
68432;SDS011;55412;51.350;17.056;2023-08-21T07:15:33;6.55;;;3.17;;
68432;SDS011;55412;51.350;17.056;2023-08-21T07:18:00;5.55;;;2.72;;
68432;SDS011;55412;51.350;17.056;2023-08-21T07:20:26;5.55;;;1.80;;
68432;SDS011;55412;51.350;17.056;2023-08-21T07:22:57;6.28;;;3.10;;
68432;SDS011;55412;51.350;17.056;2023-08-21T07:25:23;6.30;;;2.17;;
68432;SDS011;55412;51.350;17.056;2023-08-21T07:27:51;6.32;;;2.15;;
68432;SDS011;55412;51.350;17.056;2023-08-21T07:30:20;6.65;;;2.63;;
68432;SDS011;55412;51.350;17.056;2023-08-21T07:32:49;6.18;;;2.70;;
68432;SDS011;55412;51.350;17.056;2023-08-21T07:35:18;5.53;;;2.38;;
68432;SDS011;55412;51.350;17.056;2023-08-21T07:37:45;4.93;;;2.30;;
68432;SDS011;55412;51.350;17.056;2023-08-21T07:40:12;4.38;;;1.80;;
68432;SDS011;55412;51.350;17.056;2023-08-21T07:42:39;4.97;;;2.03;;
68432;SDS011;55412;51.350;17.056;2023-08-21T07:45:06;6.00;;;1.90;;
68432;SDS011;55412;51.350;17.056;2023-08-21T07:47:33;6.25;;;2.33;;
68432;SDS011;55412;51.350;17.056;2023-08-21T07:49:59;5.37;;;2.37;;
68432;SDS011;55412;51.350;17.056;2023-08-21T07:52:25;4.95;;;1.98;;
68432;SDS011;55412;51.350;17.056;2023-08-21T07:54:52;5.70;;;2.13;;
68432;SDS011;55412;51.350;17.056;2023-08-21T07:57:19;5.65;;;1.90;;
68432;SDS011;55412;51.350;17.056;2023-08-21T07:59:45;6.47;;;2.45;;
68432;SDS011;55412;51.350;17.056;2023-08-21T08:02:12;4.10;;;1.97;;
68432;SDS011;55412;51.350;17.056;2023-08-21T08:04:39;6.00;;;1.75;;
68432;SDS011;55412;51.350;17.056;2023-08-21T08:07:05;5.57;;;2.15;;
68432;SDS011;55412;51.350;17.056;2023-08-21T08:09:37;5.25;;;2.42;;
68432;SDS011;55412;51.350;17.056;2023-08-21T08:12:04;6.07;;;2.50;;
68432;SDS011;55412;51.350;17.056;2023-08-21T08:17:59;6.55;;;2.25;;
68432;SDS011;55412;51.350;17.056;2023-08-21T08:20:26;5.50;;;2.25;;
68432;SDS011;55412;51.350;17.056;2023-08-21T08:26:45;5.00;;;2.13;;
68432;SDS011;55412;51.350;17.056;2023-08-21T08:29:15;6.27;;;2.20;;
68432;SDS011;55412;51.350;17.056;2023-08-21T08:31:50;4.45;;;1.90;;
68432;SDS011;55412;51.350;17.056;2023-08-21T08:34:16;4.35;;;2.03;;
68432;SDS011;55412;51.350;17.056;2023-08-21T08:36:45;11.65;;;2.17;;
68432;SDS011;55412;51.350;17.056;2023-08-21T08:39:11;6.50;;;2.00;;
68432;SDS011;55412;51.350;17.056;2023-08-21T08:41:48;6.30;;;2.17;;
68432;SDS011;55412;51.350;17.056;2023-08-21T08:44:34;4.30;;;1.48;;
68432;SDS011;55412;51.350;17.056;2023-08-21T08:47:03;5.05;;;1.67;;
68432;SDS011;55412;51.350;17.056;2023-08-21T08:49:29;3.83;;;1.58;;
68432;SDS011;55412;51.350;17.056;2023-08-21T08:51:57;4.95;;;1.70;;
68432;SDS011;55412;51.350;17.056;2023-08-21T08:54:30;4.47;;;1.80;;
68432;SDS011;55412;51.350;17.056;2023-08-21T08:57:00;5.70;;;1.90;;
68432;SDS011;55412;51.350;17.056;2023-08-21T08:59:29;4.63;;;1.92;;
68432;SDS011;55412;51.350;17.056;2023-08-21T09:01:57;8.82;;;1.63;;
68432;SDS011;55412;51.350;17.056;2023-08-21T09:04:24;4.35;;;1.98;;
68432;SDS011;55412;51.350;17.056;2023-08-21T09:06:51;4.43;;;1.33;;
68432;SDS011;55412;51.350;17.056;2023-08-21T09:09:17;8.00;;;2.10;;
68432;SDS011;55412;51.350;17.056;2023-08-21T09:11:44;4.28;;;1.60;;
68432;SDS011;55412;51.350;17.056;2023-08-21T09:14:13;4.53;;;1.23;;
68432;SDS011;55412;51.350;17.056;2023-08-21T09:16:56;4.47;;;1.65;;
68432;SDS011;55412;51.350;17.056;2023-08-21T09:19:29;5.87;;;1.50;;
68432;SDS011;55412;51.350;17.056;2023-08-21T09:21:55;4.80;;;1.25;;
68432;SDS011;55412;51.350;17.056;2023-08-21T09:24:22;4.97;;;1.35;;
68432;SDS011;55412;51.350;17.056;2023-08-21T09:26:52;3.72;;;1.55;;
68432;SDS011;55412;51.350;17.056;2023-08-21T09:29:18;3.78;;;1.35;;
68432;SDS011;55412;51.350;17.056;2023-08-21T09:31:45;4.27;;;1.50;;
68432;SDS011;55412;51.350;17.056;2023-08-21T09:34:12;3.58;;;1.45;;
68432;SDS011;55412;51.350;17.056;2023-08-21T09:36:38;3.78;;;1.55;;
68432;SDS011;55412;51.350;17.056;2023-08-21T09:39:04;4.28;;;1.30;;
68432;SDS011;55412;51.350;17.056;2023-08-21T09:41:31;5.28;;;1.80;;
68432;SDS011;55412;51.350;17.056;2023-08-21T09:44:01;4.90;;;1.43;;
68432;SDS011;55412;51.350;17.056;2023-08-21T09:46:29;4.65;;;1.77;;
68432;SDS011;55412;51.350;17.056;2023-08-21T09:48:55;5.40;;;1.85;;
68432;SDS011;55412;51.350;17.056;2023-08-21T09:51:21;4.50;;;1.60;;
68432;SDS011;55412;51.350;17.056;2023-08-21T09:53:48;4.18;;;1.27;;
68432;SDS011;55412;51.350;17.056;2023-08-21T09:56:15;4.40;;;1.20;;
68432;SDS011;55412;51.350;17.056;2023-08-21T09:58:48;4.80;;;1.65;;
68432;SDS011;55412;51.350;17.056;2023-08-21T10:01:16;3.72;;;1.48;;
68432;SDS011;55412;51.350;17.056;2023-08-21T10:03:46;4.47;;;1.50;;
68432;SDS011;55412;51.350;17.056;2023-08-21T10:06:15;4.78;;;1.25;;
68432;SDS011;55412;51.350;17.056;2023-08-21T10:08:46;7.27;;;1.67;;
68432;SDS011;55412;51.350;17.056;2023-08-21T10:11:14;5.00;;;1.98;;
68432;SDS011;55412;51.350;17.056;2023-08-21T10:13:47;3.75;;;1.30;;
68432;SDS011;55412;51.350;17.056;2023-08-21T10:16:16;4.97;;;1.40;;
68432;SDS011;55412;51.350;17.056;2023-08-21T10:18:43;5.43;;;2.65;;
68432;SDS011;55412;51.350;17.056;2023-08-21T10:21:11;5.73;;;1.50;;
68432;SDS011;55412;51.350;17.056;2023-08-21T10:23:41;5.20;;;1.33;;
68432;SDS011;55412;51.350;17.056;2023-08-21T10:26:11;4.60;;;2.25;;
68432;SDS011;55412;51.350;17.056;2023-08-21T10:31:34;3.63;;;1.33;;
68432;SDS011;55412;51.350;17.056;2023-08-21T10:34:13;4.77;;;1.77;;
68432;SDS011;55412;51.350;17.056;2023-08-21T10:36:40;5.18;;;1.63;;
68432;SDS011;55412;51.350;17.056;2023-08-21T10:39:26;4.30;;;1.50;;
68432;SDS011;55412;51.350;17.056;2023-08-21T10:41:57;6.18;;;1.48;;
68432;SDS011;55412;51.350;17.056;2023-08-21T10:47:30;3.77;;;1.70;;
68432;SDS011;55412;51.350;17.056;2023-08-21T10:49:58;3.83;;;1.15;;
68432;SDS011;55412;51.350;17.056;2023-08-21T10:52:29;3.72;;;1.73;;
68432;SDS011;55412;51.350;17.056;2023-08-21T10:55:03;4.40;;;1.17;;
68432;SDS011;55412;51.350;17.056;2023-08-21T10:57:31;4.75;;;1.80;;
68432;SDS011;55412;51.350;17.056;2023-08-21T11:00:09;5.33;;;1.27;;
68432;SDS011;55412;51.350;17.056;2023-08-21T11:02:46;4.68;;;1.50;;
68432;SDS011;55412;51.350;17.056;2023-08-21T11:05:15;4.45;;;1.65;;
68432;SDS011;55412;51.350;17.056;2023-08-21T11:07:46;3.70;;;1.63;;
68432;SDS011;55412;51.350;17.056;2023-08-21T11:10:16;5.15;;;1.48;;
68432;SDS011;55412;51.350;17.056;2023-08-21T11:12:51;3.40;;;1.13;;
68432;SDS011;55412;51.350;17.056;2023-08-21T11:15:20;3.45;;;1.27;;
68432;SDS011;55412;51.350;17.056;2023-08-21T11:17:58;4.57;;;1.52;;
68432;SDS011;55412;51.350;17.056;2023-08-21T11:20:30;3.40;;;1.23;;
68432;SDS011;55412;51.350;17.056;2023-08-21T11:23:02;4.15;;;1.55;;
68432;SDS011;55412;51.350;17.056;2023-08-21T11:25:32;5.03;;;1.43;;
68432;SDS011;55412;51.350;17.056;2023-08-21T11:27:59;3.42;;;1.30;;
68432;SDS011;55412;51.350;17.056;2023-08-21T11:30:27;3.92;;;1.55;;
68432;SDS011;55412;51.350;17.056;2023-08-21T11:33:07;2.83;;;1.05;;
68432;SDS011;55412;51.350;17.056;2023-08-21T11:35:37;3.80;;;1.63;;
68432;SDS011;55412;51.350;17.056;2023-08-21T11:38:05;4.47;;;1.40;;
68432;SDS011;55412;51.350;17.056;2023-08-21T11:40:35;4.00;;;1.58;;
68432;SDS011;55412;51.350;17.056;2023-08-21T11:43:06;3.20;;;1.23;;
68432;SDS011;55412;51.350;17.056;2023-08-21T11:45:34;3.92;;;1.45;;
68432;SDS011;55412;51.350;17.056;2023-08-21T11:48:00;4.75;;;1.60;;
68432;SDS011;55412;51.350;17.056;2023-08-21T11:50:26;3.80;;;1.50;;
68432;SDS011;55412;51.350;17.056;2023-08-21T11:52:54;4.80;;;1.20;;
68432;SDS011;55412;51.350;17.056;2023-08-21T11:55:22;6.32;;;1.55;;
68432;SDS011;55412;51.350;17.056;2023-08-21T11:57:48;4.05;;;1.30;;
68432;SDS011;55412;51.350;17.056;2023-08-21T12:00:17;3.55;;;1.02;;
68432;SDS011;55412;51.350;17.056;2023-08-21T12:02:55;3.73;;;1.33;;
68432;SDS011;55412;51.350;17.056;2023-08-21T12:05:36;4.10;;;1.42;;
68432;SDS011;55412;51.350;17.056;2023-08-21T12:08:11;3.47;;;1.30;;
68432;SDS011;55412;51.350;17.056;2023-08-21T12:10:41;4.47;;;1.38;;
68432;SDS011;55412;51.350;17.056;2023-08-21T12:13:07;4.97;;;1.27;;
68432;SDS011;55412;51.350;17.056;2023-08-21T12:15:39;4.00;;;1.17;;
68432;SDS011;55412;51.350;17.056;2023-08-21T12:18:05;4.95;;;1.58;;
68432;SDS011;55412;51.350;17.056;2023-08-21T12:20:32;6.22;;;1.65;;
68432;SDS011;55412;51.350;17.056;2023-08-21T12:22:59;4.38;;;1.23;;
68432;SDS011;55412;51.350;17.056;2023-08-21T12:25:25;4.43;;;1.70;;
68432;SDS011;55412;51.350;17.056;2023-08-21T12:27:52;4.70;;;1.33;;
68432;SDS011;55412;51.350;17.056;2023-08-21T12:30:18;3.70;;;1.20;;
68432;SDS011;55412;51.350;17.056;2023-08-21T12:32:46;3.40;;;1.70;;
68432;SDS011;55412;51.350;17.056;2023-08-21T12:35:15;3.72;;;1.20;;
68432;SDS011;55412;51.350;17.056;2023-08-21T12:37:45;6.05;;;1.63;;
68432;SDS011;55412;51.350;17.056;2023-08-21T12:40:12;9.83;;;1.40;;
68432;SDS011;55412;51.350;17.056;2023-08-21T12:42:39;3.40;;;1.00;;
68432;SDS011;55412;51.350;17.056;2023-08-21T12:45:05;4.55;;;1.92;;
68432;SDS011;55412;51.350;17.056;2023-08-21T12:47:33;3.83;;;1.50;;
68432;SDS011;55412;51.350;17.056;2023-08-21T12:49:59;4.43;;;2.05;;
68432;SDS011;55412;51.350;17.056;2023-08-21T12:52:28;4.23;;;1.63;;
68432;SDS011;55412;51.350;17.056;2023-08-21T12:54:55;5.00;;;2.08;;
68432;SDS011;55412;51.350;17.056;2023-08-21T12:57:21;4.53;;;1.80;;
68432;SDS011;55412;51.350;17.056;2023-08-21T12:59:48;4.72;;;2.28;;
68432;SDS011;55412;51.350;17.056;2023-08-21T13:02:14;5.32;;;2.05;;
68432;SDS011;55412;51.350;17.056;2023-08-21T13:04:41;6.50;;;2.50;;
68432;SDS011;55412;51.350;17.056;2023-08-21T13:07:08;6.05;;;1.77;;
68432;SDS011;55412;51.350;17.056;2023-08-21T13:09:35;5.03;;;2.10;;
68432;SDS011;55412;51.350;17.056;2023-08-21T13:12:01;4.43;;;1.80;;
68432;SDS011;55412;51.350;17.056;2023-08-21T13:14:33;4.82;;;1.98;;
68432;SDS011;55412;51.350;17.056;2023-08-21T13:16:59;5.13;;;1.50;;
68432;SDS011;55412;51.350;17.056;2023-08-21T13:19:26;5.68;;;1.70;;
68432;SDS011;55412;51.350;17.056;2023-08-21T13:21:56;5.85;;;2.33;;
68432;SDS011;55412;51.350;17.056;2023-08-21T13:24:22;5.88;;;2.28;;
68432;SDS011;55412;51.350;17.056;2023-08-21T13:26:48;4.35;;;1.70;;
68432;SDS011;55412;51.350;17.056;2023-08-21T13:29:15;4.80;;;2.00;;
68432;SDS011;55412;51.350;17.056;2023-08-21T13:31:41;4.43;;;1.70;;
68432;SDS011;55412;51.350;17.056;2023-08-21T13:34:08;4.68;;;2.22;;
68432;SDS011;55412;51.350;17.056;2023-08-21T13:36:34;5.47;;;1.67;;
68432;SDS011;55412;51.350;17.056;2023-08-21T13:39:00;4.15;;;2.20;;
68432;SDS011;55412;51.350;17.056;2023-08-21T13:41:26;3.73;;;1.70;;
68432;SDS011;55412;51.350;17.056;2023-08-21T13:43:52;5.40;;;2.10;;
68432;SDS011;55412;51.350;17.056;2023-08-21T13:46:19;4.47;;;1.95;;
68432;SDS011;55412;51.350;17.056;2023-08-21T13:48:46;5.18;;;2.00;;
68432;SDS011;55412;51.350;17.056;2023-08-21T13:51:12;3.88;;;2.03;;
68432;SDS011;55412;51.350;17.056;2023-08-21T13:53:38;4.17;;;1.90;;
68432;SDS011;55412;51.350;17.056;2023-08-21T13:56:05;4.70;;;2.30;;
68432;SDS011;55412;51.350;17.056;2023-08-21T13:58:31;5.97;;;2.25;;
68432;SDS011;55412;51.350;17.056;2023-08-21T14:00:57;4.63;;;2.08;;
68432;SDS011;55412;51.350;17.056;2023-08-21T14:03:24;4.80;;;2.40;;
68432;SDS011;55412;51.350;17.056;2023-08-21T14:05:50;5.30;;;2.40;;
68432;SDS011;55412;51.350;17.056;2023-08-21T14:08:16;4.60;;;2.00;;
68432;SDS011;55412;51.350;17.056;2023-08-21T14:10:42;4.57;;;2.47;;
68432;SDS011;55412;51.350;17.056;2023-08-21T14:13:09;6.90;;;2.30;;
68432;SDS011;55412;51.350;17.056;2023-08-21T14:15:35;4.75;;;2.10;;
68432;SDS011;55412;51.350;17.056;2023-08-21T14:18:01;5.77;;;2.30;;
68432;SDS011;55412;51.350;17.056;2023-08-21T14:20:28;4.93;;;2.15;;
68432;SDS011;55412;51.350;17.056;2023-08-21T14:22:54;5.70;;;2.40;;
68432;SDS011;55412;51.350;17.056;2023-08-21T14:25:20;5.18;;;2.20;;
68432;SDS011;55412;51.350;17.056;2023-08-21T14:27:47;6.95;;;2.08;;
68432;SDS011;55412;51.350;17.056;2023-08-21T14:30:14;5.93;;;2.37;;
68432;SDS011;55412;51.350;17.056;2023-08-21T14:35:28;6.07;;;2.75;;
68432;SDS011;55412;51.350;17.056;2023-08-21T14:37:54;5.50;;;2.38;;
68432;SDS011;55412;51.350;17.056;2023-08-21T14:40:21;5.85;;;2.35;;
68432;SDS011;55412;51.350;17.056;2023-08-21T14:42:47;4.13;;;2.20;;
68432;SDS011;55412;51.350;17.056;2023-08-21T14:45:14;3.88;;;1.90;;
68432;SDS011;55412;51.350;17.056;2023-08-21T14:47:41;6.13;;;2.80;;
68432;SDS011;55412;51.350;17.056;2023-08-21T14:50:10;6.72;;;2.30;;
68432;SDS011;55412;51.350;17.056;2023-08-21T14:52:36;4.20;;;2.38;;